Time;durP1;ratioP1;P1;durP2;ratioP2;P2;SDS_P1;SDS_P2;PMS_P1;PMS_P2;Temp;Humidity;BMP_temperature;BMP_pressure;BME280_temperature;BME280_humidity;BME280_pressure;Samples;Min_cycle;Max_cycle;Signal;HPM_P1;HPM_P2
2022/12/06 00:01:44;;;;;;;4.05;3.00;;;;;;;7.39;69.44;101975.84;5050031;28;20459;-67
2022/12/06 00:04:14;;;;;;;5.15;3.20;;;;;;;7.39;69.16;101970.50;5059577;28;20079;-67
2022/12/06 00:06:46;;;;;;;6.43;3.03;;;;;;;7.38;69.10;101974.19;5055480;28;20050;-66
2022/12/06 00:09:19;;;;;;;4.40;2.85;;;;;;;7.38;69.23;101977.69;5058715;28;20132;-67
2022/12/06 00:11:47;;;;;;;5.32;3.35;;;;;;;7.38;69.48;101969.66;5058041;28;20128;-66
2022/12/06 00:14:15;;;;;;;6.10;3.45;;;;;;;7.39;68.85;101973.16;5051246;28;20128;-66
2022/12/06 00:16:43;;;;;;;7.13;2.95;;;;;;;7.38;69.11;101985.72;5062464;28;20077;-66
2022/12/06 00:19:14;;;;;;;5.10;2.90;;;;;;;7.37;68.84;101977.84;5049519;28;20095;-67
2022/12/06 00:21:42;;;;;;;4.82;3.45;;;;;;;7.38;68.56;101976.84;5049301;28;20132;-67
2022/12/06 00:24:13;;;;;;;4.68;2.90;;;;;;;7.39;69.61;101975.84;5056696;28;20101;-67
2022/12/06 00:26:44;;;;;;;6.88;2.95;;;;;;;7.39;69.47;101976.69;5058752;28;20124;-67
2022/12/06 00:29:14;;;;;;;5.07;2.88;;;;;;;7.40;69.15;101983.69;5067364;28;20047;-66
2022/12/06 00:31:42;;;;;;;5.05;3.10;;;;;;;7.39;69.48;101975.84;5066833;28;20410;-67
2022/12/06 00:34:10;;;;;;;5.00;2.90;;;;;;;7.39;69.25;101974.00;5065634;28;20045;-66
2022/12/06 00:36:40;;;;;;;5.90;3.17;;;;;;;7.38;69.04;101980.34;5063072;28;20040;-66
2022/12/06 00:39:10;;;;;;;4.97;2.72;;;;;;;7.36;68.81;101968.16;5057610;28;20427;-66
2022/12/06 00:41:39;;;;;;;4.78;3.22;;;;;;;7.37;69.24;101976.00;5063151;28;20045;-66
2022/12/06 00:44:08;;;;;;;4.65;2.92;;;;;;;7.34;68.89;101971.00;5064938;28;20109;-66
2022/12/06 00:46:37;;;;;;;8.70;3.53;;;;;;;7.34;69.26;101960.31;5057588;28;20044;-66
2022/12/06 00:49:07;;;;;;;5.10;3.17;;;;;;;7.33;69.94;101965.84;5057796;28;20113;-66
2022/12/06 00:51:36;;;;;;;4.75;3.13;;;;;;;7.35;69.52;101961.16;5061640;28;20529;-66
2022/12/06 00:54:04;;;;;;;4.95;3.28;;;;;;;7.28;69.99;101958.34;5057175;28;20060;-66
2022/12/06 00:56:34;;;;;;;5.53;3.45;;;;;;;7.37;69.85;101972.50;5060727;28;20053;-68
2022/12/06 00:59:02;;;;;;;6.32;3.65;;;;;;;7.35;69.80;101964.66;5058773;28;20081;-67
2022/12/06 01:01:34;;;;;;;4.82;3.53;;;;;;;7.33;69.71;101972.03;5062687;28;20091;-68
2022/12/06 01:04:05;;;;;;;6.00;3.80;;;;;;;7.34;70.16;101968.34;5065223;28;20049;-67
2022/12/06 01:06:35;;;;;;;6.28;3.72;;;;;;;7.33;69.41;101966.66;5059289;28;20060;-67
2022/12/06 01:09:06;;;;;;;6.47;4.00;;;;;;;7.33;70.23;101964.00;5063181;28;20045;-67
2022/12/06 01:11:34;;;;;;;7.10;3.95;;;;;;;7.33;70.14;101968.50;5063499;28;20045;-67
2022/12/06 01:14:02;;;;;;;6.20;4.18;;;;;;;7.32;69.75;101964.16;5058516;28;20049;-68
2022/12/06 01:16:32;;;;;;;8.55;3.70;;;;;;;7.35;69.43;101963.81;5059750;28;20041;-66
2022/12/06 01:19:01;;;;;;;6.00;3.95;;;;;;;7.29;69.85;101957.31;5059224;28;20060;-67
2022/12/06 01:21:30;;;;;;;6.93;4.20;;;;;;;7.33;70.17;101966.66;5059583;28;20041;-67
2022/12/06 01:23:58;;;;;;;4.45;3.40;;;;;;;7.33;70.44;101972.03;5050019;28;20120;-67
2022/12/06 01:26:29;;;;;;;5.68;3.60;;;;;;;7.34;70.23;101972.84;5054805;28;20076;-67
2022/12/06 01:28:57;;;;;;;5.13;3.92;;;;;;;7.26;70.07;101960.34;5065044;28;20044;-67
2022/12/06 01:31:26;;;;;;;6.63;4.28;;;;;;;7.34;70.18;101970.19;5061561;28;20083;-67
2022/12/06 01:34:01;;;;;;;6.82;4.50;;;;;;;7.33;70.50;101973.84;5064373;28;20041;-67
2022/12/06 01:36:29;;;;;;;8.35;4.30;;;;;;;7.32;70.01;101972.19;5053075;28;20050;-67
2022/12/06 01:38:59;;;;;;;5.43;4.03;;;;;;;7.31;70.13;101966.00;5063596;28;20516;-67
2022/12/06 01:41:28;;;;;;;5.00;3.70;;;;;;;7.31;70.41;101968.69;5058819;28;20068;-67
2022/12/06 01:43:56;;;;;;;7.93;3.90;;;;;;;7.30;70.27;101972.38;5061339;28;20059;-67
2022/12/06 01:46:31;;;;;;;6.25;4.40;;;;;;;7.28;70.57;101968.19;5053656;28;20132;-66
2022/12/06 01:49:08;;;;;;;5.13;3.88;;;;;;;7.28;70.55;101966.34;5062677;28;20049;-66
2022/12/06 01:51:36;;;;;;;;;;;;;;;7.26;70.88;101973.72;5061194;28;20409;-66
2022/12/06 01:54:08;;;;;;;5.07;3.72;;;;;;;7.29;70.27;101969.88;5057184;28;19926;-66
2022/12/06 01:56:36;;;;;;;5.72;3.83;;;;;;;7.27;70.59;101970.03;5055764;28;20053;-66
2022/12/06 01:59:05;;;;;;;7.55;4.13;;;;;;;7.27;70.25;101967.38;5064314;28;20136;-67
2022/12/06 02:01:34;;;;;;;6.10;3.88;;;;;;;7.26;70.42;101963.03;5063685;28;20045;-67
2022/12/06 02:04:04;;;;;;;6.35;3.92;;;;;;;7.29;70.20;101967.19;5065150;28;20052;-67
2022/12/06 02:06:34;;;;;;;6.72;3.72;;;;;;;7.28;70.91;101968.19;5064158;28;20088;-67
2022/12/06 02:09:04;;;;;;;7.32;4.07;;;;;;;7.29;70.50;101967.19;5064285;28;20109;-67
2022/12/06 02:11:32;;;;;;;8.00;3.80;;;;;;;7.28;71.02;101970.88;5056911;28;20041;-66
2022/12/06 02:14:05;;;;;;;6.53;4.05;;;;;;;7.27;70.91;101955.84;5059102;28;20045;-66
2022/12/06 02:16:47;;;;;;;6.30;3.88;;;;;;;7.28;70.44;101958.34;5056368;28;20057;-66
2022/12/06 02:19:46;;;;;;;5.25;3.58;;;;;;;7.27;70.47;101959.34;5050587;28;20468;-65
2022/12/06 02:22:23;;;;;;;6.22;3.88;;;;;;;7.26;70.67;101960.34;5055712;28;20207;-66
2022/12/06 02:25:07;;;;;;;5.05;3.72;;;;;;;7.27;70.78;101958.50;5056923;28;20059;-66
2022/12/06 02:28:02;;;;;;;5.70;3.35;;;;;;;7.27;70.76;101962.00;5054278;28;20049;-66
2022/12/06 02:30:45;;;;;;;4.75;3.33;;;;;;;7.27;70.82;101959.34;5062783;28;20083;-66
2022/12/06 02:33:21;;;;;;;5.65;3.47;;;;;;;7.28;71.01;101958.34;5061010;28;20059;-66
2022/12/06 02:35:54;;;;;;;6.10;3.42;;;;;;;7.29;70.84;101956.50;5057093;28;20049;-66
2022/12/06 02:38:32;;;;;;;4.53;2.90;;;;;;;7.30;70.78;101952.81;5055281;28;20062;-67
2022/12/06 02:41:07;;;;;;;4.80;3.22;;;;;;;7.29;70.49;101951.16;5059566;28;20124;-66
2022/12/06 02:43:41;;;;;;;6.43;3.50;;;;;;;7.30;70.68;101942.13;5058531;28;20053;-66
2022/12/06 02:46:13;;;;;;;5.68;3.03;;;;;;;7.30;70.93;101939.44;5046220;28;20060;-66
2022/12/06 02:48:42;;;;;;;4.35;2.83;;;;;;;7.30;71.09;101947.47;5055558;28;20044;-66
2022/12/06 02:51:15;;;;;;;4.75;3.30;;;;;;;7.31;70.85;101949.13;5054453;28;20509;-66
2022/12/06 02:53:46;;;;;;;4.93;3.00;;;;;;;7.30;70.45;101942.94;5064643;28;20131;-66
2022/12/06 02:56:17;;;;;;;6.05;3.03;;;;;;;7.30;70.39;101944.78;5061314;28;20044;-66
2022/12/06 02:58:45;;;;;;;6.55;3.50;;;;;;;7.31;70.84;101938.44;5058295;28;20049;-67
2022/12/06 03:01:16;;;;;;;5.32;3.38;;;;;;;7.30;70.36;101934.94;5059634;28;20382;-66
2022/12/06 03:04:16;;;;;;;4.93;3.60;;;;;;;7.29;70.93;101938.59;5061316;28;20048;-67
2022/12/06 03:07:09;;;;;;;6.82;4.22;;;;;;;7.30;71.36;101931.41;5056178;28;20061;-66
2022/12/06 03:09:52;;;;;;;6.60;3.17;;;;;;;7.30;70.63;101934.94;5050862;28;20042;-66
2022/12/06 03:12:29;;;;;;;4.97;3.67;;;;;;;7.31;71.26;101935.75;5054703;28;20055;-65
2022/12/06 03:15:06;;;;;;;5.10;3.25;;;;;;;7.23;71.35;101936.63;5047745;28;20479;-66
2022/12/06 03:17:42;;;;;;;5.25;3.42;;;;;;;7.28;71.29;101952.97;5053452;28;20055;-66
2022/12/06 03:20:13;;;;;;;6.97;3.20;;;;;;;7.26;70.73;101943.47;5055437;28;20053;-67
2022/12/06 03:22:46;;;;;;;5.30;3.70;;;;;;;7.27;71.04;101953.16;5051349;28;20056;-66
2022/12/06 03:25:15;;;;;;;4.43;3.30;;;;;;;7.26;70.91;101946.16;5061218;28;20486;-66
2022/12/06 03:27:45;;;;;;;5.90;3.50;;;;;;;7.26;71.01;101948.81;5059010;28;20049;-66
2022/12/06 03:30:14;;;;;;;4.25;3.33;;;;;;;7.24;70.88;101949.00;5058492;28;20053;-67
2022/12/06 03:32:46;;;;;;;7.68;3.80;;;;;;;7.19;70.82;101938.81;5054405;28;20083;-67
2022/12/06 03:35:19;;;;;;;5.00;3.38;;;;;;;7.24;71.28;101954.34;5054709;28;20041;-67
2022/12/06 03:37:51;;;;;;;5.00;3.42;;;;;;;7.23;71.04;101949.16;5062907;28;20053;-67
2022/12/06 03:40:23;;;;;;;6.15;3.78;;;;;;;7.22;70.72;101945.66;5062770;28;20060;-67
2022/12/06 03:42:51;;;;;;;6.07;3.15;;;;;;;7.22;71.45;101951.00;5054368;28;20045;-67
2022/12/06 03:45:21;;;;;;;6.85;3.40;;;;;;;7.23;71.33;101952.66;5060975;28;20053;-67
2022/12/06 03:47:55;;;;;;;4.95;3.15;;;;;;;7.22;70.92;101956.34;5052504;28;20057;-67
2022/12/06 03:50:28;;;;;;;6.30;3.72;;;;;;;7.19;71.10;101951.34;5058278;28;20109;-67
2022/12/06 03:52:55;;;;;;;7.47;4.20;;;;;;;7.18;70.77;101939.81;5055364;28;20049;-67
2022/12/06 03:55:23;;;;;;;5.88;3.35;;;;;;;7.22;71.39;101950.16;5048248;28;20060;-67
2022/12/06 03:57:51;;;;;;;6.38;4.15;;;;;;;7.20;71.22;101947.66;5053806;28;20041;-67
2022/12/06 04:00:19;;;;;;;4.72;3.13;;;;;;;7.18;71.33;101947.00;5057782;28;20060;-67
2022/12/06 04:02:47;;;;;;;5.15;3.60;;;;;;;7.20;71.67;101942.31;5056948;28;20047;-67
2022/12/06 04:05:16;;;;;;;4.60;3.40;;;;;;;7.19;71.25;101944.16;5065812;28;20366;-67
2022/12/06 04:07:43;;;;;;;7.65;3.80;;;;;;;7.19;71.65;101946.84;5065315;28;20063;-66
2022/12/06 04:10:12;;;;;;;9.40;4.03;;;;;;;7.19;71.59;101943.34;5064908;28;20071;-66
2022/12/06 04:15:25;;;;;;;5.03;3.67;;;;;;;7.22;71.24;101952.84;5058092;28;20057;-67
2022/12/06 04:18:12;;;;;;;7.15;3.90;;;;;;;7.16;71.47;101939.16;5061925;28;20045;-67
2022/12/06 04:23:34;;;;;;;7.35;4.60;;;;;;;7.19;71.49;101943.34;5060812;28;20064;-67
2022/12/06 04:26:03;;;;;;;7.53;4.57;;;;;;;7.17;71.87;101938.16;5066166;28;20045;-67
2022/12/06 04:39:35;;;;;;;10.15;5.78;;;;;;;7.12;71.37;101951.19;5062764;28;20051;-67
2022/12/06 04:44:50;;;;;;;8.15;4.72;;;;;;;7.08;71.96;101957.06;5063983;28;20136;-67
2022/12/06 04:47:17;;;;;;;8.85;4.50;;;;;;;7.06;72.25;101953.72;5063826;28;20135;-67
2022/12/06 04:49:45;;;;;;;8.68;5.22;;;;;;;7.09;71.93;101961.41;5058869;28;20056;-67
2022/12/06 04:52:14;;;;;;;8.55;4.38;;;;;;;7.05;71.82;101952.91;5063169;28;20052;-67
2022/12/06 04:54:43;;;;;;;8.77;4.28;;;;;;;7.04;71.74;101953.06;5058753;28;20426;-67
2022/12/06 04:57:12;;;;;;;9.38;4.72;;;;;;;7.08;72.17;101949.88;5059059;28;20049;-66
2022/12/06 04:59:42;;;;;;;11.50;4.85;;;;;;;7.06;72.02;101946.53;5061523;28;20045;-66
2022/12/06 05:02:12;;;;;;;8.60;4.40;;;;;;;7.08;72.26;101947.22;5054663;28;20112;-66
2022/12/06 05:04:40;;;;;;;8.85;4.95;;;;;;;7.08;71.88;101951.72;5060665;28;20144;-67
2022/12/06 05:07:08;;;;;;;10.02;4.22;;;;;;;7.05;71.34;101947.56;5065806;28;20049;-66
2022/12/06 05:09:37;;;;;;;10.07;4.60;;;;;;;7.07;71.86;101948.22;5065141;28;20084;-67
2022/12/06 05:12:06;;;;;;;7.47;4.68;;;;;;;7.08;72.18;101946.38;5061198;28;20121;-66
2022/12/06 05:14:34;;;;;;;12.70;6.03;;;;;;;7.10;72.14;101947.03;5053882;28;20056;-66
2022/12/06 05:17:01;;;;;;;12.55;4.93;;;;;;;7.08;71.97;101946.38;5056366;28;20136;-66
2022/12/06 05:19:30;;;;;;;8.02;5.78;;;;;;;7.08;71.71;101949.88;5063277;28;20422;-66
2022/12/06 05:21:57;;;;;;;11.32;4.93;;;;;;;7.08;72.00;101946.38;5057838;28;20466;-66
2022/12/06 05:24:25;;;;;;;8.10;4.50;;;;;;;7.10;71.85;101947.03;5059407;28;20498;-66
2022/12/06 05:26:54;;;;;;;10.00;5.07;;;;;;;7.07;72.04;101945.53;5055731;28;20053;-66
2022/12/06 05:29:22;;;;;;;10.15;4.60;;;;;;;7.06;71.93;101940.38;5050627;28;20108;-66
2022/12/06 05:31:49;;;;;;;9.98;4.80;;;;;;;7.06;72.09;101938.53;5057434;28;20040;-66
2022/12/06 05:34:17;;;;;;;10.02;5.20;;;;;;;7.06;71.84;101941.19;5062542;28;20045;-66
2022/12/06 05:36:45;;;;;;;10.85;5.25;;;;;;;7.08;71.90;101941.03;5065504;28;20049;-66
2022/12/06 05:39:13;;;;;;;18.08;5.45;;;;;;;7.07;72.02;101942.88;5065153;28;20148;-66
2022/12/06 05:41:40;;;;;;;9.60;5.28;;;;;;;7.08;71.96;101941.88;5061181;28;20045;-67
2022/12/06 05:44:11;;;;;;;9.85;4.47;;;;;;;7.07;71.66;101940.19;5061220;28;20108;-66
2022/12/06 05:46:38;;;;;;;12.50;5.13;;;;;;;7.13;71.87;101936.00;5057664;28;20350;-67
2022/12/06 05:49:06;;;;;;;10.35;4.45;;;;;;;7.09;71.81;101942.69;5053772;28;20128;-66
2022/12/06 05:51:34;;;;;;;6.97;3.95;;;;;;;7.08;72.26;101939.19;5061267;28;20048;-66
2022/12/06 05:54:04;;;;;;;11.90;4.90;;;;;;;7.10;72.07;101939.00;5061083;28;20052;-67
2022/12/06 05:56:32;;;;;;;10.07;4.97;;;;;;;7.09;71.87;101942.69;5063222;28;20051;-67
2022/12/06 05:59:00;;;;;;;8.63;5.07;;;;;;;7.11;72.11;101943.34;5064041;28;20135;-67
2022/12/06 06:01:29;;;;;;;11.43;4.47;;;;;;;7.12;71.39;101942.34;5070606;28;20047;-67
2022/12/06 06:03:57;;;;;;;15.52;4.88;;;;;;;7.10;72.27;101942.53;5056944;28;20056;-66
2022/12/06 06:06:24;;;;;;;12.75;4.68;;;;;;;7.10;71.89;101945.19;5059371;28;20041;-67
2022/12/06 06:08:52;;;;;;;11.15;4.40;;;;;;;7.08;71.54;101944.53;5059453;28;20053;-66
2022/12/06 06:11:20;;;;;;;9.23;4.47;;;;;;;7.08;71.39;101946.38;5054676;28;20048;-66
2022/12/06 06:13:48;;;;;;;11.20;5.32;;;;;;;7.09;71.73;101943.53;5058185;28;20570;-66
2022/12/06 06:16:15;;;;;;;8.48;4.72;;;;;;;7.12;71.67;101951.19;5058639;28;20108;-66
2022/12/06 06:18:44;;;;;;;12.68;4.68;;;;;;;7.24;71.27;101953.50;5056501;28;20049;-67
2022/12/06 06:21:12;;;;;;;9.75;4.95;;;;;;;7.37;71.05;101945.75;5051817;28;20112;-66
2022/12/06 06:23:40;;;;;;;11.75;4.65;;;;;;;7.45;71.01;101940.38;5056240;28;20100;-67
2022/12/06 06:26:09;;;;;;;11.88;5.43;;;;;;;7.48;70.38;101935.50;5053985;28;20056;-68
2022/12/06 06:28:36;;;;;;;12.18;5.28;;;;;;;7.48;69.81;101940.88;5057445;28;20056;-67
2022/12/06 06:31:05;;;;;;;9.77;4.50;;;;;;;7.48;69.86;101937.34;5063590;28;20056;-66
2022/12/06 06:33:33;;;;;;;12.30;5.65;;;;;;;7.44;70.28;101936.88;5057139;28;20111;-66
2022/12/06 06:36:02;;;;;;;12.95;5.00;;;;;;;7.42;70.34;101932.72;5058488;28;20148;-65
2022/12/06 06:38:29;;;;;;;11.80;5.05;;;;;;;7.35;70.27;101932.56;5061893;28;20076;-68
2022/12/06 06:41:00;;;;;;;10.57;4.82;;;;;;;7.28;70.88;101930.75;5060187;28;20049;-68
2022/12/06 06:43:29;;;;;;;11.88;4.70;;;;;;;7.30;70.92;101944.78;5058424;28;20053;-68
2022/12/06 06:45:58;;;;;;;10.82;4.72;;;;;;;7.29;71.22;101943.13;4708581;28;10000251;-67
2022/12/06 06:48:28;;;;;;;8.05;4.13;;;;;;;7.28;71.27;101947.63;5054842;28;20132;-67
2022/12/06 06:50:56;;;;;;;9.48;4.35;;;;;;;7.26;70.80;101943.47;5045475;28;20061;-66
2022/12/06 06:53:26;;;;;;;8.88;4.20;;;;;;;7.25;71.37;101948.00;5052598;28;20041;-66
2022/12/06 06:55:54;;;;;;;7.82;4.20;;;;;;;7.23;70.84;101946.50;5060371;28;20057;-67
2022/12/06 06:58:22;;;;;;;8.25;4.22;;;;;;;7.22;71.65;101934.97;5055149;28;20063;-67
2022/12/06 07:00:53;;;;;;;8.23;4.53;;;;;;;7.19;70.92;101944.16;5060549;28;20056;-67
2022/12/06 07:03:21;;;;;;;12.40;4.13;;;;;;;7.17;71.17;101945.34;5057062;28;20053;-66
2022/12/06 07:05:51;;;;;;;8.95;4.32;;;;;;;7.15;71.58;101940.16;5047552;28;20055;-66
2022/12/06 07:08:20;;;;;;;8.27;4.30;;;;;;;7.12;71.09;101939.69;5055109;28;20046;-65
2022/12/06 07:10:49;;;;;;;10.68;4.10;;;;;;;7.13;71.25;101946.69;5053783;28;20051;-66
2022/12/06 07:13:18;;;;;;;8.30;3.85;;;;;;;7.12;71.46;101937.00;5060323;28;20044;-65
2022/12/06 07:15:45;;;;;;;9.43;3.90;;;;;;;7.09;71.55;101932.00;5056808;28;20075;-62
2022/12/06 07:18:13;;;;;;;12.63;4.22;;;;;;;7.07;71.61;101924.16;5057263;28;20053;-64
2022/12/06 07:20:41;;;;;;;13.45;4.72;;;;;;;7.12;71.63;101937.00;5052095;28;20059;-65
2022/12/06 07:23:08;;;;;;;9.38;4.63;;;;;;;7.14;71.36;101945.69;5057134;28;20049;-65
2022/12/06 07:25:36;;;;;;;8.13;4.35;;;;;;;7.13;71.86;101942.19;5057922;28;20139;-65
2022/12/06 07:28:05;;;;;;;8.82;4.72;;;;;;;7.12;71.82;101939.69;5058004;28;20101;-65
2022/12/06 07:30:33;;;;;;;7.15;4.85;;;;;;;7.13;71.58;101946.69;5063159;28;20414;-64
2022/12/06 07:33:01;;;;;;;10.13;5.20;;;;;;;7.11;71.15;101946.88;5061627;28;20045;-64
2022/12/06 07:35:29;;;;;;;10.65;4.82;;;;;;;7.11;71.64;101951.38;5055877;28;20049;-64
2022/12/06 07:38:16;;;;;;;10.05;4.88;;;;;;;6.96;71.38;101924.53;5063886;28;20060;-64
2022/12/06 07:40:44;;;;;;;12.40;5.57;;;;;;;7.09;71.75;101953.38;5063550;28;20044;-65
2022/12/06 07:46:17;;;;;;;9.75;5.03;;;;;;;7.08;70.91;101949.03;5050085;28;20076;-65
2022/12/06 07:48:45;;;;;;;9.13;4.45;;;;;;;7.07;71.23;101956.22;5044205;28;20160;-64
2022/12/06 07:51:13;;;;;;;14.00;5.40;;;;;;;7.06;71.29;101953.72;5062590;28;20064;-65
2022/12/06 07:53:40;;;;;;;9.77;5.22;;;;;;;7.07;71.66;101958.91;5061542;28;20482;-65
2022/12/06 07:56:09;;;;;;;15.52;5.82;;;;;;;7.02;71.87;101952.41;5061829;28;20156;-65
2022/12/06 07:58:38;;;;;;;9.23;4.70;;;;;;;7.04;71.04;101964.59;5063547;28;20049;-65
2022/12/06 08:01:06;;;;;;;8.70;4.80;;;;;;;7.03;71.69;101965.59;5061758;28;20184;-65
2022/12/06 08:03:33;;;;;;;10.57;4.97;;;;;;;7.04;71.85;101971.78;5057916;28;20131;-65
2022/12/06 08:06:01;;;;;;;8.38;5.10;;;;;;;7.04;71.42;101969.09;5058304;28;20052;-65
2022/12/06 08:08:29;;;;;;;11.38;5.70;;;;;;;7.04;71.43;101969.09;5060764;28;20053;-65
2022/12/06 08:10:58;;;;;;;8.73;5.40;;;;;;;7.03;71.22;101976.28;5052941;28;20061;-65
2022/12/06 08:13:26;;;;;;;8.85;4.22;;;;;;;7.06;71.10;101977.78;5059828;28;20048;-65
2022/12/06 08:16:04;;;;;;;11.83;5.10;;;;;;;7.05;70.97;101974.28;4929539;28;10001200;-65
2022/12/06 08:18:32;;;;;;;11.73;4.47;;;;;;;7.07;71.27;101974.09;5053383;28;20266;-66
2022/12/06 08:21:00;;;;;;;10.80;4.32;;;;;;;7.21;70.50;101973.41;5041804;28;20064;-66
2022/12/06 08:23:28;;;;;;;11.80;4.50;;;;;;;7.34;70.03;101972.84;5042212;28;20112;-66
2022/12/06 08:26:03;;;;;;;8.10;4.32;;;;;;;7.51;69.63;101966.44;5055165;28;20053;-65
2022/12/06 08:28:32;;;;;;;6.57;4.20;;;;;;;7.70;68.39;101965.16;5054751;28;20143;-66
2022/12/06 08:31:05;;;;;;;6.95;3.67;;;;;;;7.85;68.56;101968.75;5051152;28;20063;-65
2022/12/06 08:33:33;;;;;;;6.03;3.75;;;;;;;7.99;67.49;101967.16;5056696;28;20054;-66
2022/12/06 08:36:01;;;;;;;9.20;3.67;;;;;;;8.18;66.72;101969.38;5056539;28;20059;-65
2022/12/06 08:38:29;;;;;;;7.93;3.53;;;;;;;8.34;66.16;101973.81;5055016;28;20135;-65
2022/12/06 08:40:57;;;;;;;6.53;3.67;;;;;;;8.46;66.00;101975.88;5059083;28;20045;-65
2022/12/06 08:43:24;;;;;;;7.32;3.35;;;;;;;8.58;65.13;101976.28;5056570;28;20083;-65
2022/12/06 08:45:52;;;;;;;7.80;3.60;;;;;;;8.67;64.49;101977.00;5057886;28;20053;-66
2022/12/06 08:48:22;;;;;;;14.25;3.22;;;;;;;8.73;64.71;101971.75;5045117;28;20057;-65
2022/12/06 08:50:50;;;;;;;6.85;3.72;;;;;;;8.78;64.74;101980.09;5042343;28;20052;-66
2022/12/06 08:53:17;;;;;;;6.18;3.67;;;;;;;8.84;63.84;101973.16;5058707;28;20041;-66
2022/12/06 08:55:54;;;;;;;6.57;3.45;;;;;;;8.86;63.69;101971.13;5060950;28;20048;-65
2022/12/06 08:58:29;;;;;;;7.45;3.20;;;;;;;8.94;63.51;101968.38;5061112;28;20038;-65
2022/12/06 09:00:56;;;;;;;7.47;3.33;;;;;;;9.01;63.47;101968.47;5058703;28;20063;-64
2022/12/06 09:03:26;;;;;;;6.10;3.25;;;;;;;9.06;63.26;101971.44;5066200;28;20174;-64
2022/12/06 09:05:53;;;;;;;4.78;2.80;;;;;;;9.07;63.04;101968.56;5056181;28;20053;-64
2022/12/06 09:08:21;;;;;;;6.57;3.30;;;;;;;9.11;63.25;101980.59;5062489;28;20053;-64
2022/12/06 09:10:49;;;;;;;5.22;2.85;;;;;;;9.13;63.07;101983.09;5060545;28;20059;-63
2022/12/06 09:13:16;;;;;;;5.40;2.65;;;;;;;9.14;62.88;101982.06;5055200;28;20132;-63
2022/12/06 09:15:44;;;;;;;7.05;3.83;;;;;;;9.13;62.54;101981.25;5056442;28;20053;-63
2022/12/06 09:18:12;;;;;;;7.35;3.00;;;;;;;9.11;62.71;101985.13;5066834;28;20103;-64
2022/12/06 09:20:42;;;;;;;8.40;2.95;;;;;;;9.12;62.88;101976.88;5059658;28;20083;-64
2022/12/06 09:23:09;;;;;;;5.13;3.40;;;;;;;9.21;62.82;101984.84;5066412;28;20052;-64
2022/12/06 09:25:37;;;;;;;7.97;3.65;;;;;;;9.22;62.39;101981.16;5061392;28;20754;-65
2022/12/06 09:28:05;;;;;;;8.65;2.83;;;;;;;9.23;62.50;101982.81;5065829;28;20048;-64
2022/12/06 09:30:33;;;;;;;5.63;2.70;;;;;;;9.25;62.93;101978.09;5059360;28;20042;-64
2022/12/06 09:33:00;;;;;;;7.00;3.05;;;;;;;9.28;62.39;101986.59;5053998;28;20117;-64
2022/12/06 09:35:29;;;;;;;8.20;3.03;;;;;;;9.28;62.28;101989.28;5055547;28;20467;-64
2022/12/06 09:37:59;;;;;;;4.85;2.88;;;;;;;9.29;62.85;101987.44;5064783;28;20044;-64
2022/12/06 09:40:32;;;;;;;11.02;3.08;;;;;;;9.33;62.21;101992.25;5062932;28;20112;-64
2022/12/06 09:43:18;;;;;;;6.78;3.45;;;;;;;9.34;62.32;101987.72;5055721;28;20137;-64
2022/12/06 09:46:04;;;;;;;5.65;3.00;;;;;;;9.32;62.37;101990.59;5059751;28;20140;-64
2022/12/06 09:48:51;;;;;;;6.88;3.30;;;;;;;9.24;62.54;101989.84;5055660;28;20132;-64
2022/12/06 09:51:32;;;;;;;10.52;3.63;;;;;;;9.07;63.49;101990.03;5057416;28;20049;-64
2022/12/06 09:54:16;;;;;;;8.25;3.35;;;;;;;8.90;64.22;101993.06;5063808;28;20077;-64
2022/12/06 09:56:50;;;;;;;6.80;3.72;;;;;;;8.69;64.42;101991.06;5062383;28;20072;-64
2022/12/06 09:59:27;;;;;;;9.63;3.42;;;;;;;8.51;65.50;101995.94;5052369;28;20053;-64
2022/12/06 10:02:15;;;;;;;7.30;3.72;;;;;;;8.36;66.09;101996.72;5064635;28;20045;-64
2022/12/06 10:05:00;;;;;;;8.43;3.88;;;;;;;8.21;65.70;101998.47;5054415;28;20483;-64
2022/12/06 10:07:41;;;;;;;11.80;3.80;;;;;;;8.14;66.15;101994.84;5062447;28;20049;-64
2022/12/06 10:10:21;;;;;;;6.82;3.70;;;;;;;8.08;66.71;101995.56;5064733;28;20053;-64
2022/12/06 10:13:02;;;;;;;5.28;2.92;;;;;;;8.02;66.92;101998.94;5061804;28;20046;-65
2022/12/06 10:15:45;;;;;;;8.30;3.10;;;;;;;7.95;67.44;101985.44;5063398;28;20136;-63
2022/12/06 10:18:34;;;;;;;8.55;3.67;;;;;;;7.97;67.53;101993.28;4710844;28;10000521;-66
2022/12/06 10:21:13;;;;;;;7.20;3.28;;;;;;;7.94;66.86;101983.75;5060118;28;20291;-66
2022/12/06 10:23:57;;;;;;;10.48;3.25;;;;;;;7.92;67.50;101979.59;5045992;28;20477;-66
2022/12/06 10:26:39;;;;;;;8.77;3.13;;;;;;;7.87;66.83;101981.97;5051701;28;20109;-66
2022/12/06 10:29:16;;;;;;;5.88;3.03;;;;;;;7.82;67.53;101979.81;5058571;28;20059;-65
2022/12/06 10:31:53;;;;;;;9.32;3.22;;;;;;;7.79;67.73;101978.31;5042439;28;20060;-65
2022/12/06 10:34:23;;;;;;;4.28;2.42;;;;;;;7.77;67.20;101974.16;5055051;28;20038;-66
2022/12/06 10:37:01;;;;;;;6.80;2.90;;;;;;;7.79;67.52;101959.59;5053383;28;20055;-67
2022/12/06 10:39:37;;;;;;;6.07;2.75;;;;;;;8.04;66.15;101972.81;5052276;28;20139;-67
2022/12/06 10:42:11;;;;;;;6.47;3.40;;;;;;;8.25;66.11;101961.47;5053496;28;20072;-66
2022/12/06 10:44:44;;;;;;;3.85;2.70;;;;;;;8.42;65.33;101960.34;5052814;28;20489;-67
2022/12/06 10:47:15;;;;;;;4.75;2.45;;;;;;;8.61;64.26;101973.25;5047014;28;20049;-67
2022/12/06 10:49:52;;;;;;;3.97;2.45;;;;;;;8.72;64.03;101969.25;5049185;28;20192;-66
2022/12/06 10:52:29;;;;;;;6.05;2.88;;;;;;;8.67;64.21;101969.81;5047747;28;20171;-66
2022/12/06 10:55:05;;;;;;;6.90;3.08;;;;;;;8.57;64.38;101969.25;5060322;28;20128;-67
2022/12/06 10:57:41;;;;;;;5.22;2.70;;;;;;;8.45;64.60;101974.22;5047429;28;20055;-67
2022/12/06 11:00:15;;;;;;;7.60;3.05;;;;;;;8.38;65.64;101977.81;5057750;28;20148;-66
2022/12/06 11:02:52;;;;;;;7.13;3.25;;;;;;;8.29;65.57;101981.53;5054077;28;20052;-66
2022/12/06 11:05:24;;;;;;;12.57;3.15;;;;;;;8.20;66.24;101986.09;5059111;28;20497;-67
2022/12/06 11:07:55;;;;;;;6.72;2.88;;;;;;;8.15;66.25;101980.44;5057783;28;20052;-67
2022/12/06 11:10:27;;;;;;;6.45;2.85;;;;;;;8.10;66.25;101975.63;5046910;28;20057;-67
2022/12/06 11:13:00;;;;;;;8.45;2.92;;;;;;;8.04;66.46;101983.53;5043128;28;20053;-67
2022/12/06 11:15:37;;;;;;;11.77;3.80;;;;;;;7.99;66.03;101977.88;5057909;28;20124;-67
2022/12/06 11:18:11;;;;;;;6.38;3.03;;;;;;;7.96;66.84;101973.72;5054562;28;20136;-67
2022/12/06 11:20:44;;;;;;;5.53;2.63;;;;;;;7.95;67.04;101971.22;5046520;28;20049;-68
2022/12/06 11:23:21;;;;;;;7.15;2.97;;;;;;;7.93;66.84;101974.06;5051169;28;20152;-67
2022/12/06 11:26:01;;;;;;;6.10;2.95;;;;;;;7.90;67.24;101973.59;5041667;28;20060;-67
2022/12/06 11:28:36;;;;;;;7.47;2.63;;;;;;;7.90;67.61;101970.91;5049137;28;20052;-67
2022/12/06 11:31:14;;;;;;;5.93;2.28;;;;;;;7.90;67.06;101981.63;5048063;28;20049;-67
2022/12/06 11:33:41;;;;;;;4.78;2.63;;;;;;;7.86;67.56;101969.59;5045924;28;20049;-68
2022/12/06 11:36:09;;;;;;;7.60;2.80;;;;;;;7.86;67.04;101974.94;5054660;28;20057;-67
2022/12/06 11:38:40;;;;;;;5.32;2.20;;;;;;;7.82;67.23;101969.13;5062490;28;20116;-66
2022/12/06 11:41:11;;;;;;;7.63;2.60;;;;;;;7.81;67.09;101960.25;5060087;28;20172;-66
2022/12/06 11:43:41;;;;;;;7.28;3.00;;;;;;;7.77;67.13;101956.25;5052707;28;20049;-66
2022/12/06 11:46:13;;;;;;;4.32;2.45;;;;;;;7.76;67.23;101949.25;5048952;28;20045;-66
2022/12/06 11:48:41;;;;;;;5.75;2.90;;;;;;;7.77;67.28;101950.06;5058572;28;20065;-66
2022/12/06 11:51:16;;;;;;;3.67;2.50;;;;;;;7.79;66.90;101951.56;5060308;28;20049;-65
2022/12/06 11:54:01;;;;;;;9.25;2.65;;;;;;;7.79;66.82;101956.09;5048963;28;20061;-66
2022/12/06 11:56:31;;;;;;;4.22;2.38;;;;;;;7.77;66.67;101945.56;5057383;28;20108;-66
2022/12/06 11:59:10;;;;;;;4.00;2.05;;;;;;;7.75;65.95;101938.72;5048854;28;20046;-66
2022/12/06 12:01:41;;;;;;;5.05;2.00;;;;;;;7.73;66.44;101935.38;5052217;28;20057;-66
2022/12/06 12:04:33;;;;;;;4.30;1.83;;;;;;;7.73;65.66;101938.88;5052531;28;20140;-66
2022/12/06 12:07:04;;;;;;;3.55;1.80;;;;;;;7.73;66.17;101933.53;5056599;28;20057;-67
2022/12/06 12:09:36;;;;;;;6.00;2.40;;;;;;;7.75;65.13;101928.84;5062676;28;20155;-66
2022/12/06 12:12:13;;;;;;;5.80;2.58;;;;;;;7.64;65.91;101907.00;5058654;28;20057;-65
2022/12/06 12:14:43;;;;;;;6.70;3.03;;;;;;;7.71;65.47;101930.22;5061941;28;20079;-65